Time;durP1;ratioP1;P1;durP2;ratioP2;P2;SDS_P1;SDS_P2;PMS_P1;PMS_P2;Temp;Humidity;BMP_temperature;BMP_pressure;BME280_temperature;BME280_humidity;BME280_pressure;Samples;Min_cycle;Max_cycle;Signal;HPM_P1;HPM_P2
2022/04/28 00:02:12;;;;;;;28.85;13.32;;;;;;;;;;4949255;29;20715;-73
2022/04/28 00:04:40;;;;;;;33.67;14.18;;;;;;;;;;4949746;28;20043;-73
2022/04/28 00:07:07;;;;;;;37.58;14.15;;;;;;;;;;4949586;29;20673;-73
2022/04/28 00:09:34;;;;;;;37.03;15.90;;;;;;;;;;4948580;29;20142;-73
2022/04/28 00:12:01;;;;;;;31.00;14.00;;;;;;;;;;4949046;29;20043;-73
2022/04/28 00:14:30;;;;;;;30.35;14.40;;;;;;;;;;4948355;29;20142;-73
2022/04/28 00:16:57;;;;;;;30.50;13.23;;;;;;;;;;4947988;28;20094;-73
2022/04/28 00:19:24;;;;;;;42.55;15.23;;;;;;;;;;4949918;29;20086;-73
2022/04/28 00:21:51;;;;;;;22.70;11.77;;;;;;;;;;4947733;29;20097;-73
2022/04/28 00:24:19;;;;;;;24.17;11.52;;;;;;;;;;4949477;29;20146;-73
2022/04/28 00:26:46;;;;;;;25.88;12.30;;;;;;;;;;4949065;29;20149;-73
2022/04/28 00:29:13;;;;;;;31.33;13.60;;;;;;;;;;4949281;29;20165;-73
2022/04/28 00:31:40;;;;;;;34.50;13.57;;;;;;;;;;4948874;29;20134;-73
2022/04/28 00:34:07;;;;;;;30.75;12.65;;;;;;;;;;4948251;29;20452;-73
2022/04/28 00:36:34;;;;;;;25.02;11.40;;;;;;;;;;4947699;29;20922;-73
2022/04/28 00:39:02;;;;;;;28.73;11.70;;;;;;;;;;4947863;29;20086;-73
2022/04/28 00:41:29;;;;;;;27.52;12.32;;;;;;;;;;4948673;29;20651;-73
2022/04/28 00:43:56;;;;;;;30.17;13.20;;;;;;;;;;4947426;29;20162;-73
2022/04/28 00:46:23;;;;;;;32.30;13.32;;;;;;;;;;4947551;29;20082;-73
2022/04/28 00:51:36;;;;;;;38.50;14.15;;;;;;;;;;4948205;29;20087;-73
2022/04/28 00:57:45;;;;;;;35.03;14.48;;;;;;;;;;4947559;29;20078;-73
2022/04/28 01:00:13;;;;;;;38.40;16.85;;;;;;;;;;4948147;28;20090;-73
2022/04/28 01:02:40;;;;;;;39.50;16.75;;;;;;;;;;4948287;28;20094;-73
2022/04/28 01:05:09;;;;;;;46.40;16.58;;;;;;;;;;4948096;29;20047;-73
2022/04/28 01:07:37;;;;;;;43.00;16.30;;;;;;;;;;4947391;29;20134;-73
2022/04/28 01:10:05;;;;;;;34.00;16.02;;;;;;;;;;4946372;29;20086;-73
2022/04/28 01:12:32;;;;;;;31.23;14.35;;;;;;;;;;4947467;29;20142;-73
2022/04/28 01:14:59;;;;;;;43.55;15.70;;;;;;;;;;4948168;29;20082;-73
2022/04/28 01:17:26;;;;;;;28.67;13.43;;;;;;;;;;4948347;29;20086;-73
2022/04/28 01:19:53;;;;;;;39.28;16.38;;;;;;;;;;4946362;29;20055;-73
2022/04/28 01:22:21;;;;;;;36.10;15.68;;;;;;;;;;4947093;29;20086;-73
2022/04/28 01:24:48;;;;;;;32.20;14.35;;;;;;;;;;4947138;29;20405;-73
2022/04/28 01:27:15;;;;;;;31.52;15.15;;;;;;;;;;4946980;28;20078;-73
2022/04/28 01:29:42;;;;;;;45.30;15.48;;;;;;;;;;4947498;29;20130;-73
2022/04/28 01:32:09;;;;;;;38.13;15.98;;;;;;;;;;4946609;29;20095;-73
2022/04/28 01:34:37;;;;;;;33.38;13.32;;;;;;;;;;4947850;29;20055;-73
2022/04/28 01:37:06;;;;;;;45.53;13.73;;;;;;;;;;4947681;29;20051;-73
2022/04/28 01:39:33;;;;;;;26.77;12.60;;;;;;;;;;4947983;29;20110;-73
2022/04/28 01:42:00;;;;;;;36.67;13.57;;;;;;;;;;4947867;29;20051;-73
2022/04/28 01:44:28;;;;;;;27.00;12.80;;;;;;;;;;4946659;29;20126;-73
2022/04/28 01:46:55;;;;;;;26.27;12.68;;;;;;;;;;4947787;29;20498;-73
2022/04/28 01:49:22;;;;;;;23.75;11.45;;;;;;;;;;4946031;29;20085;-73
2022/04/28 01:57:21;;;;;;;30.02;12.75;;;;;;;;;;4947393;29;20090;-73
2022/04/28 01:59:48;;;;;;;30.42;13.50;;;;;;;;;;4946258;29;20126;-73
2022/04/28 02:02:15;;;;;;;27.95;12.50;;;;;;;;;;4947504;29;20050;-73
2022/04/28 02:04:43;;;;;;;40.13;14.35;;;;;;;;;;4947405;29;20134;-73
2022/04/28 02:07:13;;;;;;;27.58;13.02;;;;;;;;;;4946180;29;20153;-73
2022/04/28 02:09:41;;;;;;;43.65;15.57;;;;;;;;;;4947212;28;20089;-72
2022/04/28 02:12:09;;;;;;;33.78;14.82;;;;;;;;;;4945487;29;20047;-73
2022/04/28 02:14:36;;;;;;;36.42;15.82;;;;;;;;;;4946617;29;20138;-73
2022/04/28 02:17:04;;;;;;;34.83;13.32;;;;;;;;;;4945696;29;20087;-73
2022/04/28 02:19:32;;;;;;;54.85;14.30;;;;;;;;;;4947313;29;20102;-73
2022/04/28 02:21:59;;;;;;;34.63;13.75;;;;;;;;;;4945104;29;20053;-73
2022/04/28 02:24:26;;;;;;;37.60;14.23;;;;;;;;;;4946295;29;20159;-73
2022/04/28 02:26:53;;;;;;;39.28;14.88;;;;;;;;;;4946942;29;20154;-73
2022/04/28 02:29:21;;;;;;;36.20;13.73;;;;;;;;;;4947228;29;20416;-72
2022/04/28 02:31:48;;;;;;;33.35;14.48;;;;;;;;;;4947301;29;20094;-73
2022/04/28 02:34:15;;;;;;;31.27;13.63;;;;;;;;;;4947509;29;20048;-73
2022/04/28 02:36:42;;;;;;;38.42;13.77;;;;;;;;;;4945549;29;20130;-73
2022/04/28 02:39:10;;;;;;;46.67;19.00;;;;;;;;;;4946342;29;20134;-73
2022/04/28 02:41:37;;;;;;;34.10;14.43;;;;;;;;;;4946841;29;20110;-73
2022/04/28 02:44:04;;;;;;;32.00;13.52;;;;;;;;;;4945890;29;20141;-73
2022/04/28 02:46:32;;;;;;;35.33;13.43;;;;;;;;;;4945566;29;20530;-73
2022/04/28 02:48:59;;;;;;;29.65;12.80;;;;;;;;;;4945757;29;20074;-73
2022/04/28 02:51:26;;;;;;;30.95;13.82;;;;;;;;;;4945967;29;20087;-72
2022/04/28 02:53:53;;;;;;;35.22;13.32;;;;;;;;;;4946869;29;20780;-73
2022/04/28 02:56:20;;;;;;;36.60;12.10;;;;;;;;;;4947005;29;20134;-73
2022/04/28 02:58:49;;;;;;;31.38;12.70;;;;;;;;;;4946794;29;20072;-73
2022/04/28 03:01:16;;;;;;;28.42;12.63;;;;;;;;;;4945424;29;20158;-73
2022/04/28 03:03:44;;;;;;;36.88;12.52;;;;;;;;;;4947027;29;20104;-73
2022/04/28 03:11:43;;;;;;;34.75;13.18;;;;;;;;;;4946671;29;20131;-73
2022/04/28 03:14:12;;;;;;;37.88;13.88;;;;;;;;;;4946863;29;20055;-73
2022/04/28 03:16:39;;;;;;;39.95;13.23;;;;;;;;;;4946130;28;20062;-73
2022/04/28 03:19:06;;;;;;;33.10;12.73;;;;;;;;;;4946230;29;20134;-73
2022/04/28 03:21:34;;;;;;;30.92;12.10;;;;;;;;;;4945185;29;20720;-73
2022/04/28 03:24:01;;;;;;;43.50;13.00;;;;;;;;;;4945115;29;20055;-73
2022/04/28 03:26:29;;;;;;;29.73;13.90;;;;;;;;;;4946375;29;20049;-73
2022/04/28 03:28:56;;;;;;;41.17;12.80;;;;;;;;;;4946158;29;20538;-73
2022/04/28 03:31:24;;;;;;;36.75;12.25;;;;;;;;;;4946366;29;20075;-73
2022/04/28 03:33:52;;;;;;;29.77;13.07;;;;;;;;;;4946443;29;20055;-74
2022/04/28 03:39:05;;;;;;;29.17;11.80;;;;;;;;;;4946823;29;20106;-73
2022/04/28 03:41:32;;;;;;;36.25;12.05;;;;;;;;;;4944581;29;20600;-73
2022/04/28 03:43:59;;;;;;;33.50;13.50;;;;;;;;;;4946319;29;20059;-73
2022/04/28 03:46:26;;;;;;;38.33;13.88;;;;;;;;;;4944934;29;20161;-73
2022/04/28 03:48:54;;;;;;;29.05;11.70;;;;;;;;;;4946510;29;20047;-73
2022/04/28 03:51:21;;;;;;;27.15;12.23;;;;;;;;;;4947197;28;20084;-73
2022/04/28 03:53:48;;;;;;;21.80;10.23;;;;;;;;;;4949728;29;20645;-73
2022/04/28 03:56:16;;;;;;;34.75;12.02;;;;;;;;;;4946199;28;20142;-73
2022/04/28 03:58:43;;;;;;;30.42;12.07;;;;;;;;;;4947911;29;20437;-73
2022/04/28 04:01:12;;;;;;;28.65;11.57;;;;;;;;;;4959896;28;20153;-73
2022/04/28 04:03:40;;;;;;;34.95;14.23;;;;;;;;;;4949092;29;20118;-73
2022/04/28 04:06:07;;;;;;;35.03;13.38;;;;;;;;;;4946998;29;20061;-73
2022/04/28 04:08:34;;;;;;;36.85;13.75;;;;;;;;;;4948639;29;20097;-73
2022/04/28 04:11:01;;;;;;;45.22;14.88;;;;;;;;;;4948218;29;20142;-73
2022/04/28 04:13:28;;;;;;;31.00;13.90;;;;;;;;;;4949956;29;20043;-73
2022/04/28 04:15:56;;;;;;;35.75;13.35;;;;;;;;;;4948445;28;20695;-73
2022/04/28 04:18:23;;;;;;;39.08;14.30;;;;;;;;;;4948043;29;20058;-73
2022/04/28 04:20:50;;;;;;;42.55;13.23;;;;;;;;;;4947907;29;20137;-73
2022/04/28 04:23:17;;;;;;;47.35;13.32;;;;;;;;;;4949485;28;20055;-73
2022/04/28 04:25:45;;;;;;;43.17;12.27;;;;;;;;;;4948669;28;20083;-74
2022/04/28 04:28:12;;;;;;;37.53;13.48;;;;;;;;;;4945327;29;20762;-73
2022/04/28 04:33:27;;;;;;;38.85;14.18;;;;;;;;;;4949980;29;20102;-73
2022/04/28 04:35:54;;;;;;;39.95;14.18;;;;;;;;;;4946461;28;20133;-73
2022/04/28 04:38:21;;;;;;;46.38;14.20;;;;;;;;;;4946595;28;20066;-74
2022/04/28 04:40:48;;;;;;;28.15;13.35;;;;;;;;;;4948502;29;20130;-73
2022/04/28 04:43:16;;;;;;;34.53;13.63;;;;;;;;;;4948898;29;20134;-73
2022/04/28 04:45:43;;;;;;;35.45;13.02;;;;;;;;;;4948141;29;20302;-73
2022/04/28 04:48:11;;;;;;;33.65;12.60;;;;;;;;;;4947230;29;20122;-73
2022/04/28 04:50:38;;;;;;;34.00;13.23;;;;;;;;;;4947215;29;20130;-73
2022/04/28 04:53:06;;;;;;;34.65;13.35;;;;;;;;;;4946875;29;20123;-73
2022/04/28 04:55:33;;;;;;;36.28;13.48;;;;;;;;;;4948255;29;20121;-73
2022/04/28 04:58:01;;;;;;;34.60;14.77;;;;;;;;;;4948105;29;20412;-74
2022/04/28 05:00:28;;;;;;;37.72;16.25;;;;;;;;;;4945888;28;20075;-73
2022/04/28 05:02:56;;;;;;;41.55;14.77;;;;;;;;;;4947883;28;20415;-74
2022/04/28 05:05:23;;;;;;;43.10;14.05;;;;;;;;;;4945774;28;20143;-75
2022/04/28 05:07:50;;;;;;;32.42;13.93;;;;;;;;;;4944916;29;20197;-73
2022/04/28 05:10:18;;;;;;;40.58;15.55;;;;;;;;;;4948354;29;20130;-73
2022/04/28 05:12:45;;;;;;;47.28;15.50;;;;;;;;;;4945930;28;20138;-75
2022/04/28 05:15:13;;;;;;;37.63;14.60;;;;;;;;;;4947146;28;20110;-75
2022/04/28 05:17:40;;;;;;;42.53;15.40;;;;;;;;;;4947844;28;20089;-74
2022/04/28 05:20:07;;;;;;;49.40;18.30;;;;;;;;;;4947288;29;20075;-77
2022/04/28 05:22:35;;;;;;;43.45;16.05;;;;;;;;;;4945796;29;20162;-72
2022/04/28 05:25:02;;;;;;;42.78;17.40;;;;;;;;;;4948011;29;21329;-72
2022/04/28 05:27:29;;;;;;;50.05;17.63;;;;;;;;;;4947922;28;20142;-73
2022/04/28 05:29:56;;;;;;;48.83;17.17;;;;;;;;;;4946959;29;20083;-73
2022/04/28 05:32:24;;;;;;;47.72;17.48;;;;;;;;;;4949806;28;20055;-73
2022/04/28 05:34:51;;;;;;;45.80;16.52;;;;;;;;;;4948295;28;20075;-71
2022/04/28 05:37:19;;;;;;;45.10;16.45;;;;;;;;;;4960899;28;20669;-73
2022/04/28 05:39:46;;;;;;;41.38;16.65;;;;;;;;;;4948046;29;20150;-71
2022/04/28 05:42:13;;;;;;;37.97;15.57;;;;;;;;;;4947463;29;20086;-73
2022/04/28 05:47:26;;;;;;;42.63;16.10;;;;;;;;;;4947727;28;20723;-73
2022/04/28 05:49:54;;;;;;;38.40;15.65;;;;;;;;;;4947646;29;20819;-73
2022/04/28 05:52:22;;;;;;;51.17;15.35;;;;;;;;;;4945928;29;20147;-72
2022/04/28 05:54:49;;;;;;;49.30;15.43;;;;;;;;;;4948497;29;20134;-73
2022/04/28 05:57:18;;;;;;;37.58;15.30;;;;;;;;;;4948417;29;20142;-73
2022/04/28 05:59:46;;;;;;;42.33;15.98;;;;;;;;;;4948776;29;20444;-73
2022/04/28 06:02:13;;;;;;;39.30;14.88;;;;;;;;;;4946524;29;20125;-73
2022/04/28 06:04:40;;;;;;;40.80;14.55;;;;;;;;;;4945716;28;20050;-73
2022/04/28 06:07:07;;;;;;;42.00;16.40;;;;;;;;;;4947439;29;20456;-73
2022/04/28 06:09:35;;;;;;;43.38;14.75;;;;;;;;;;4947199;29;20626;-73
2022/04/28 06:12:02;;;;;;;42.05;15.10;;;;;;;;;;4948000;29;20163;-73
2022/04/28 06:14:29;;;;;;;45.22;14.02;;;;;;;;;;4946299;28;20163;-73
2022/04/28 06:16:56;;;;;;;28.70;13.02;;;;;;;;;;4947005;29;20059;-73
2022/04/28 06:19:25;;;;;;;24.42;12.15;;;;;;;;;;4946970;29;20059;-73
2022/04/28 06:21:53;;;;;;;29.00;11.90;;;;;;;;;;4945967;29;20111;-73
2022/04/28 06:24:20;;;;;;;19.33;11.20;;;;;;;;;;4947029;28;20086;-73
2022/04/28 06:26:47;;;;;;;27.13;11.50;;;;;;;;;;4948348;29;20055;-73
2022/04/28 06:29:14;;;;;;;23.92;10.77;;;;;;;;;;4946695;29;20146;-73
2022/04/28 06:31:42;;;;;;;21.80;10.93;;;;;;;;;;4945184;28;20047;-73
2022/04/28 06:34:09;;;;;;;23.92;10.27;;;;;;;;;;4932748;29;20150;-73
2022/04/28 06:36:36;;;;;;;17.67;9.40;;;;;;;;;;4947854;29;20171;-74
2022/04/28 06:39:04;;;;;;;26.75;10.82;;;;;;;;;;4945715;28;20664;-74
2022/04/28 06:41:31;;;;;;;21.38;10.02;;;;;;;;;;4946898;29;20059;-74
2022/04/28 06:43:59;;;;;;;20.92;10.05;;;;;;;;;;4947464;29;20153;-74
2022/04/28 06:46:26;;;;;;;19.63;9.77;;;;;;;;;;4941422;29;20055;-73
2022/04/28 06:48:53;;;;;;;17.30;10.00;;;;;;;;;;4947167;28;20048;-73
2022/04/28 06:51:20;;;;;;;16.10;9.70;;;;;;;;;;4946140;29;20090;-73
2022/04/28 06:53:47;;;;;;;31.65;11.30;;;;;;;;;;4947711;28;20730;-73
2022/04/28 06:56:15;;;;;;;18.35;9.43;;;;;;;;;;4948035;29;20703;-73
2022/04/28 06:58:42;;;;;;;20.35;9.90;;;;;;;;;;4947633;28;20075;-74
2022/04/28 07:01:09;;;;;;;18.52;9.13;;;;;;;;;;4946176;29;20579;-74
2022/04/28 07:03:40;;;;;;;19.08;9.43;;;;;;;;;;4947799;28;20055;-74
2022/04/28 07:06:07;;;;;;;17.40;10.00;;;;;;;;;;4944713;28;20054;-74
2022/04/28 07:08:34;;;;;;;21.67;9.40;;;;;;;;;;4945340;28;20540;-74
2022/04/28 07:11:01;;;;;;;20.02;9.98;;;;;;;;;;4946352;29;20126;-73
2022/04/28 07:13:29;;;;;;;24.45;10.68;;;;;;;;;;4947007;29;20630;-73
2022/04/28 07:16:02;;;;;;;22.33;9.75;;;;;;;;;;4948441;28;20101;-73
2022/04/28 07:18:29;;;;;;;18.92;9.80;;;;;;;;;;4945913;29;20570;-71
2022/04/28 07:20:59;;;;;;;26.00;10.98;;;;;;;;;;4947894;28;20169;-73
2022/04/28 07:23:26;;;;;;;19.90;10.50;;;;;;;;;;4948546;29;20051;-74
2022/04/28 07:25:53;;;;;;;22.13;10.05;;;;;;;;;;4949480;28;20457;-74
2022/04/28 07:28:20;;;;;;;18.30;9.80;;;;;;;;;;4951511;29;20724;-73
2022/04/28 07:30:47;;;;;;;20.35;10.25;;;;;;;;;;4950254;29;20475;-74
2022/04/28 07:33:15;;;;;;;17.35;10.27;;;;;;;;;;4950092;29;20157;-74
2022/04/28 07:35:42;;;;;;;29.00;10.77;;;;;;;;;;4951309;29;20831;-73
2022/04/28 07:38:11;;;;;;;28.45;11.32;;;;;;;;;;4950352;29;20153;-74
2022/04/28 07:40:38;;;;;;;20.20;10.52;;;;;;;;;;4949700;29;20122;-74
2022/04/28 07:43:05;;;;;;;35.03;10.57;;;;;;;;;;4951668;29;20110;-74
2022/04/28 07:45:33;;;;;;;27.92;11.60;;;;;;;;;;4951011;29;20083;-74
2022/04/28 07:48:00;;;;;;;30.05;11.95;;;;;;;;;;4951143;28;20074;-73
2022/04/28 07:50:29;;;;;;;31.27;11.18;;;;;;;;;;4950910;29;20142;-74
2022/04/28 07:52:56;;;;;;;26.38;11.13;;;;;;;;;;4951054;28;20059;-74
2022/04/28 07:55:24;;;;;;;34.42;11.02;;;;;;;;;;4951018;29;20661;-74
2022/04/28 07:57:51;;;;;;;24.23;11.43;;;;;;;;;;4949985;29;20090;-74
2022/04/28 08:00:18;;;;;;;26.70;11.73;;;;;;;;;;4950104;28;20176;-74
2022/04/28 08:02:45;;;;;;;19.98;10.32;;;;;;;;;;4950686;28;20047;-73
2022/04/28 08:05:13;;;;;;;25.25;11.20;;;;;;;;;;4949947;28;20142;-74
2022/04/28 08:07:40;;;;;;;21.55;10.55;;;;;;;;;;4949206;29;20151;-74
2022/04/28 08:10:07;;;;;;;19.13;10.60;;;;;;;;;;4949534;29;20094;-74
2022/04/28 08:12:34;;;;;;;21.23;10.85;;;;;;;;;;4948468;28;20055;-74
2022/04/28 08:15:17;;;;;;;34.92;10.63;;;;;;;;;;4944636;29;20134;-74
2022/04/28 08:17:44;;;;;;;22.73;10.43;;;;;;;;;;4950078;29;20134;-74
2022/04/28 08:20:12;;;;;;;18.45;9.93;;;;;;;;;;4950945;29;20134;-74
2022/04/28 08:22:39;;;;;;;16.77;9.52;;;;;;;;;;4947949;29;20170;-74
2022/04/28 08:25:08;;;;;;;24.58;10.55;;;;;;;;;;4950611;28;20204;-74
2022/04/28 08:27:35;;;;;;;15.73;9.32;;;;;;;;;;4950792;28;20059;-73
2022/04/28 08:30:02;;;;;;;13.13;9.27;;;;;;;;;;4949402;29;20138;-74
2022/04/28 08:32:29;;;;;;;19.80;9.52;;;;;;;;;;4949553;28;20126;-74
2022/04/28 08:34:57;;;;;;;19.38;9.48;;;;;;;;;;4950584;29;20058;-74
2022/04/28 08:37:24;;;;;;;16.05;9.27;;;;;;;;;;4947420;28;20165;-74
2022/04/28 08:39:51;;;;;;;20.92;8.93;;;;;;;;;;4949882;28;20133;-74
2022/04/28 08:42:20;;;;;;;27.55;9.40;;;;;;;;;;4949450;28;20078;-74
2022/04/28 08:44:49;;;;;;;18.33;9.73;;;;;;;;;;4949138;28;20093;-74
2022/04/28 08:47:16;;;;;;;14.85;8.35;;;;;;;;;;4949945;28;20106;-74
2022/04/28 08:49:46;;;;;;;17.02;9.10;;;;;;;;;;4948936;28;20138;-74
2022/04/28 08:52:14;;;;;;;16.95;9.10;;;;;;;;;;4949421;29;20142;-74
2022/04/28 08:54:44;;;;;;;18.33;8.95;;;;;;;;;;4947136;28;20656;-74
2022/04/28 08:57:13;;;;;;;20.73;9.48;;;;;;;;;;4946118;28;20051;-74
2022/04/28 08:59:41;;;;;;;17.35;8.32;;;;;;;;;;4948451;28;20103;-74
2022/04/28 09:02:11;;;;;;;15.23;8.43;;;;;;;;;;4947986;29;20126;-74
2022/04/28 09:04:39;;;;;;;47.47;10.85;;;;;;;;;;4949348;28;20051;-74
2022/04/28 09:07:08;;;;;;;19.05;8.52;;;;;;;;;;4947587;29;20051;-74
2022/04/28 09:09:35;;;;;;;18.77;8.27;;;;;;;;;;4947557;28;20141;-74
2022/04/28 09:12:04;;;;;;;18.33;8.57;;;;;;;;;;4948190;29;20057;-74
2022/04/28 09:14:32;;;;;;;21.13;9.25;;;;;;;;;;4949152;29;20129;-74
2022/04/28 09:17:04;;;;;;;17.90;8.65;;;;;;;;;;4948987;28;20050;-74
2022/04/28 09:19:39;;;;;;;18.83;8.77;;;;;;;;;;4949272;28;20162;-74
2022/04/28 09:22:13;;;;;;;22.73;10.52;;;;;;;;;;4948380;28;20050;-74
2022/04/28 09:24:45;;;;;;;29.50;9.70;;;;;;;;;;4949130;29;20062;-74
2022/04/28 09:27:14;;;;;;;16.20;8.80;;;;;;;;;;4949247;28;20079;-74
2022/04/28 09:29:41;;;;;;;19.45;8.93;;;;;;;;;;4948295;29;20200;-74
2022/04/28 09:32:12;;;;;;;17.33;9.38;;;;;;;;;;4947116;28;20083;-74
2022/04/28 09:35:07;;;;;;;18.08;7.65;;;;;;;;;;4948969;29;20062;-74
2022/04/28 09:37:36;;;;;;;17.27;7.28;;;;;;;;;;4948511;28;20143;-74
2022/04/28 09:42:49;;;;;;;83.80;12.32;;;;;;;;;;4948405;28;20481;-74
2022/04/28 09:45:20;;;;;;;18.00;7.15;;;;;;;;;;4948874;29;20082;-74
2022/04/28 09:47:56;;;;;;;16.25;7.20;;;;;;;;;;4948506;28;20054;-74
2022/04/28 09:50:25;;;;;;;27.10;7.97;;;;;;;;;;4947747;29;20134;-74
2022/04/28 09:52:54;;;;;;;17.27;7.72;;;;;;;;;;4948220;28;20134;-74
2022/04/28 09:55:24;;;;;;;15.43;7.20;;;;;;;;;;4948047;28;20169;-73
2022/04/28 09:57:51;;;;;;;18.92;6.78;;;;;;;;;;4947010;29;20162;-72
2022/04/28 10:00:20;;;;;;;14.63;6.72;;;;;;;;;;4946470;28;20095;-72
2022/04/28 10:02:48;;;;;;;17.38;7.53;;;;;;;;;;4948268;28;20062;-72
2022/04/28 10:05:15;;;;;;;13.82;6.68;;;;;;;;;;4948534;28;20059;-73
2022/04/28 10:07:43;;;;;;;22.42;7.78;;;;;;;;;;4948384;29;20129;-73
2022/04/28 10:10:10;;;;;;;17.85;7.38;;;;;;;;;;4948280;28;20082;-72
2022/04/28 10:12:40;;;;;;;12.07;7.10;;;;;;;;;;4947064;29;20504;-73
2022/04/28 10:15:09;;;;;;;14.18;7.95;;;;;;;;;;4948405;28;20445;-72
2022/04/28 10:17:50;;;;;;;14.13;7.45;;;;;;;;;;4947441;29;20146;-72
2022/04/28 10:20:24;;;;;;;16.27;7.72;;;;;;;;;;4947016;29;20078;-72
2022/04/28 10:23:12;;;;;;;21.00;8.45;;;;;;;;;;4948041;28;20055;-72
2022/04/28 10:34:24;;;;;;;15.18;6.97;;;;;;;;;;4947240;28;20106;-73
2022/04/28 10:36:52;;;;;;;15.00;7.07;;;;;;;;;;4947188;29;20134;-73
2022/04/28 10:39:39;;;;;;;13.32;7.28;;;;;;;;;;4948146;28;20094;-73
2022/04/28 10:42:14;;;;;;;20.35;6.65;;;;;;;;;;4945792;29;20058;-73
2022/04/28 10:44:54;;;;;;;10.18;6.35;;;;;;;;;;4947431;28;20057;-73
2022/04/28 10:47:23;;;;;;;14.00;5.85;;;;;;;;;;4948328;28;20062;-72
2022/04/28 10:49:54;;;;;;;10.02;5.55;;;;;;;;;;4947097;29;20066;-72
2022/04/28 10:52:22;;;;;;;15.52;6.10;;;;;;;;;;4947512;28;20079;-73
2022/04/28 10:54:52;;;;;;;11.38;5.55;;;;;;;;;;4946697;28;20114;-73
2022/04/28 10:57:27;;;;;;;8.63;4.82;;;;;;;;;;4946243;29;20075;-72
2022/04/28 10:59:58;;;;;;;12.10;5.55;;;;;;;;;;4948258;28;20057;-72
2022/04/28 11:02:25;;;;;;;13.75;6.00;;;;;;;;;;4951631;28;20083;-73
2022/04/28 11:05:06;;;;;;;15.23;5.15;;;;;;;;;;4949869;29;20051;-73
2022/04/28 11:07:33;;;;;;;8.40;4.25;;;;;;;;;;4949493;29;20138;-73
2022/04/28 11:10:04;;;;;;;9.05;4.32;;;;;;;;;;4949745;29;20083;-73
2022/04/28 11:12:36;;;;;;;10.55;4.78;;;;;;;;;;4948949;29;20054;-73
2022/04/28 11:15:09;;;;;;;8.88;4.90;;;;;;;;;;4950760;28;20583;-73
2022/04/28 11:17:37;;;;;;;10.07;4.22;;;;;;;;;;4951279;28;20057;-73
2022/04/28 11:20:07;;;;;;;10.98;3.50;;;;;;;;;;4949919;29;20087;-72
2022/04/28 11:22:43;;;;;;;11.25;3.88;;;;;;;;;;4949862;28;20074;-72
2022/04/28 11:25:12;;;;;;;12.00;4.45;;;;;;;;;;4947908;29;20552;-72
2022/04/28 11:27:40;;;;;;;8.75;4.22;;;;;;;;;;4951051;28;20082;-73
2022/04/28 11:30:10;;;;;;;14.85;4.10;;;;;;;;;;4951676;28;20532;-72
2022/04/28 11:32:52;;;;;;;12.90;4.68;;;;;;;;;;4950301;28;20138;-72
2022/04/28 11:35:20;;;;;;;9.10;4.10;;;;;;;;;;4945069;29;20055;-73
2022/04/28 11:37:50;;;;;;;12.90;4.55;;;;;;;;;;4951390;28;20114;-73
2022/04/28 11:40:17;;;;;;;10.15;4.13;;;;;;;;;;4950161;29;20142;-73
2022/04/28 11:42:58;;;;;;;24.67;3.58;;;;;;;;;;4951335;28;20656;-73
2022/04/28 11:45:26;;;;;;;10.00;3.85;;;;;;;;;;4951047;28;20623;-73
2022/04/28 11:48:00;;;;;;;6.45;3.65;;;;;;;;;;4950949;28;20055;-73
2022/04/28 11:50:35;;;;;;;12.68;3.70;;;;;;;;;;4950639;29;20137;-73
2022/04/28 11:53:04;;;;;;;10.80;3.92;;;;;;;;;;4949823;29;20510;-73
2022/04/28 11:55:33;;;;;;;10.15;3.70;;;;;;;;;;4949324;29;20154;-73
2022/04/28 11:58:01;;;;;;;13.32;4.38;;;;;;;;;;4951211;28;20059;-72
2022/04/28 12:00:28;;;;;;;10.38;3.70;;;;;;;;;;4950967;28;20055;-73
2022/04/28 12:02:56;;;;;;;7.68;3.40;;;;;;;;;;4948712;28;20134;-73
2022/04/28 12:05:30;;;;;;;21.98;3.60;;;;;;;;;;4950016;29;20491;-73
2022/04/28 12:07:57;;;;;;;;;;;;;;;;;;4951340;28;20109;-73
2022/04/28 12:15:57;;;;;;;16.58;3.90;;;;;;;;;;4950492;29;20795;-74
2022/04/28 12:21:22;;;;;;;5.93;2.28;;;;;;;;;;4950219;29;20055;-73
2022/04/28 12:23:55;;;;;;;8.93;2.90;;;;;;;;;;4949920;28;20039;-73
2022/04/28 12:26:26;;;;;;;19.63;3.05;;;;;;;;;;4949379;29;20104;-73
2022/04/28 12:28:56;;;;;;;12.30;4.03;;;;;;;;;;4948505;29;20148;-73
2022/04/28 12:31:28;;;;;;;9.20;2.80;;;;;;;;;;4949771;28;20452;-73
2022/04/28 12:34:13;;;;;;;6.88;3.15;;;;;;;;;;4950716;28;20055;-73
2022/04/28 12:36:44;;;;;;;8.65;3.10;;;;;;;;;;4950658;28;20086;-73
2022/04/28 12:39:12;;;;;;;6.15;2.28;;;;;;;;;;4949222;29;20584;-73
2022/04/28 12:41:43;;;;;;;8.73;3.05;;;;;;;;;;4949679;28;20155;-73
2022/04/28 12:44:10;;;;;;;13.20;3.05;;;;;;;;;;4951492;29;20727;-73
2022/04/28 12:46:39;;;;;;;13.48;3.08;;;;;;;;;;4950970;28;20114;-73
2022/04/28 12:49:08;;;;;;;17.48;3.63;;;;;;;;;;4949838;28;20055;-73
2022/04/28 12:51:45;;;;;;;15.55;3.83;;;;;;;;;;4947680;29;20722;-73
2022/04/28 12:54:14;;;;;;;22.83;4.78;;;;;;;;;;4950088;29;20078;-73
2022/04/28 12:56:43;;;;;;;8.10;3.20;;;;;;;;;;4949747;28;20087;-73
2022/04/28 12:59:13;;;;;;;7.82;3.28;;;;;;;;;;4943086;29;20047;-73
2022/04/28 13:01:41;;;;;;;10.68;3.72;;;;;;;;;;4949158;28;20062;-73
2022/04/28 13:04:19;;;;;;;9.55;3.55;;;;;;;;;;4949847;28;20051;-73
2022/04/28 13:06:47;;;;;;;14.43;3.55;;;;;;;;;;4949280;28;20594;-73
2022/04/28 13:09:15;;;;;;;27.38;4.53;;;;;;;;;;4949720;28;20055;-73
2022/04/28 13:11:47;;;;;;;8.35;3.35;;;;;;;;;;4949681;28;20055;-73
2022/04/28 13:14:16;;;;;;;13.05;3.60;;;;;;;;;;4949722;28;20059;-73
2022/04/28 13:16:44;;;;;;;6.57;3.45;;;;;;;;;;4949281;29;20066;-73
2022/04/28 13:19:12;;;;;;;15.68;3.25;;;;;;;;;;4947532;29;20055;-73
2022/04/28 13:21:39;;;;;;;5.55;3.08;;;;;;;;;;4948219;29;20106;-73
2022/04/28 13:24:09;;;;;;;12.43;3.10;;;;;;;;;;4949120;28;20059;-73
2022/04/28 13:26:36;;;;;;;25.25;3.95;;;;;;;;;;4949499;28;20075;-73
2022/04/28 13:29:04;;;;;;;7.28;2.72;;;;;;;;;;4948988;28;20075;-73
2022/04/28 13:31:31;;;;;;;7.07;2.75;;;;;;;;;;4948056;29;20095;-73
2022/04/28 13:33:59;;;;;;;7.82;3.67;;;;;;;;;;4949660;28;20485;-73
2022/04/28 13:36:26;;;;;;;10.50;3.28;;;;;;;;;;4948281;29;20055;-73
2022/04/28 13:38:53;;;;;;;6.28;3.38;;;;;;;;;;4949020;28;20134;-73
2022/04/28 13:41:28;;;;;;;6.97;3.10;;;;;;;;;;4947805;29;20420;-73
2022/04/28 13:43:55;;;;;;;17.17;3.15;;;;;;;;;;4949307;28;20075;-73
2022/04/28 13:46:22;;;;;;;7.82;3.88;;;;;;;;;;4949264;28;20133;-73
2022/04/28 13:48:50;;;;;;;16.25;3.70;;;;;;;;;;4948746;28;20158;-73
2022/04/28 13:51:17;;;;;;;8.95;4.22;;;;;;;;;;4947315;28;20071;-73
2022/04/28 13:53:45;;;;;;;8.38;3.53;;;;;;;;;;4948862;28;20047;-73
2022/04/28 13:56:13;;;;;;;11.18;3.47;;;;;;;;;;4948555;28;20055;-73
2022/04/28 13:58:40;;;;;;;11.77;3.50;;;;;;;;;;4947132;29;20047;-73
2022/04/28 14:01:07;;;;;;;9.20;4.07;;;;;;;;;;4947547;28;20129;-73
2022/04/28 14:03:35;;;;;;;7.50;3.63;;;;;;;;;;4948977;28;20043;-73
2022/04/28 14:06:05;;;;;;;9.38;3.78;;;;;;;;;;4947546;29;20058;-73
2022/04/28 14:08:32;;;;;;;8.27;3.25;;;;;;;;;;4949040;28;20442;-73
2022/04/28 14:11:00;;;;;;;10.73;3.25;;;;;;;;;;4947952;28;20837;-73
2022/04/28 14:13:28;;;;;;;30.98;4.40;;;;;;;;;;4947377;29;20131;-73
2022/04/28 14:15:55;;;;;;;15.82;3.25;;;;;;;;;;4948991;28;20134;-73
2022/04/28 14:18:23;;;;;;;10.05;3.65;;;;;;;;;;4948602;28;20062;-73
2022/04/28 14:20:51;;;;;;;4.68;2.83;;;;;;;;;;4945617;28;20558;-73
2022/04/28 14:23:21;;;;;;;10.00;3.88;;;;;;;;;;4948160;28;20054;-73
2022/04/28 14:25:49;;;;;;;8.30;3.53;;;;;;;;;;4948943;28;20143;-73
2022/04/28 14:28:16;;;;;;;6.57;3.80;;;;;;;;;;4948570;28;20117;-73
2022/04/28 14:30:43;;;;;;;15.93;3.60;;;;;;;;;;4947266;28;20612;-73
2022/04/28 14:33:31;;;;;;;18.08;4.72;;;;;;;;;;4947023;28;20412;-74
2022/04/28 14:35:58;;;;;;;10.23;3.58;;;;;;;;;;4948228;28;20083;-75
2022/04/28 14:38:25;;;;;;;8.27;3.80;;;;;;;;;;4948432;28;20055;-75
2022/04/28 14:40:54;;;;;;;6.15;3.60;;;;;;;;;;4948197;28;20051;-74
2022/04/28 14:43:21;;;;;;;7.93;4.13;;;;;;;;;;4946843;29;20075;-74
2022/04/28 14:45:48;;;;;;;9.60;3.95;;;;;;;;;;4947939;28;20075;-74
2022/04/28 14:48:16;;;;;;;9.88;4.43;;;;;;;;;;4946000;28;20086;-74
2022/04/28 14:53:45;;;;;;;18.50;6.00;;;;;;;;;;4947653;29;20051;-73
2022/04/28 14:56:12;;;;;;;14.98;5.97;;;;;;;;;;4947089;28;20137;-74
2022/04/28 14:58:39;;;;;;;10.90;4.57;;;;;;;;;;4947773;28;20106;-73
2022/04/28 15:01:09;;;;;;;7.63;4.90;;;;;;;;;;4940178;29;20126;-74
2022/04/28 15:03:38;;;;;;;9.70;4.75;;;;;;;;;;4948224;28;20079;-73
2022/04/28 15:06:06;;;;;;;15.45;4.82;;;;;;;;;;4948265;28;20058;-73
2022/04/28 15:08:33;;;;;;;10.70;4.43;;;;;;;;;;4947833;28;20055;-73
2022/04/28 15:11:00;;;;;;;9.90;4.20;;;;;;;;;;4947885;28;20087;-73
2022/04/28 15:13:27;;;;;;;8.05;4.15;;;;;;;;;;4948416;29;20759;-79
2022/04/28 15:15:55;;;;;;;29.25;5.10;;;;;;;;;;4949886;28;20131;-80
2022/04/28 15:18:22;;;;;;;13.02;5.13;;;;;;;;;;4950829;29;20047;-81
2022/04/28 15:20:50;;;;;;;19.25;4.78;;;;;;;;;;4950658;28;20050;-81
2022/04/28 15:23:17;;;;;;;6.57;4.45;;;;;;;;;;4955377;28;20055;-81